sensor_id;sensor_type;location;lat;lon;timestamp;P1;durP1;ratioP1;P2;durP2;ratioP2
25810;SDS011;13645;52.460;13.910;2022-10-31T00:00:46;3.25;;;1.02;;
25810;SDS011;13645;52.460;13.910;2022-10-31T00:03:14;1.60;;;0.90;;
25810;SDS011;13645;52.460;13.910;2022-10-31T00:05:45;1.35;;;1.10;;
25810;SDS011;13645;52.460;13.910;2022-10-31T00:08:14;2.40;;;1.15;;
25810;SDS011;13645;52.460;13.910;2022-10-31T00:10:41;1.00;;;0.98;;
25810;SDS011;13645;52.460;13.910;2022-10-31T00:13:09;2.50;;;1.13;;
25810;SDS011;13645;52.460;13.910;2022-10-31T00:15:37;1.00;;;1.00;;
25810;SDS011;13645;52.460;13.910;2022-10-31T00:18:05;1.90;;;0.95;;
25810;SDS011;13645;52.460;13.910;2022-10-31T00:20:34;1.55;;;1.20;;
25810;SDS011;13645;52.460;13.910;2022-10-31T00:23:00;2.80;;;1.20;;
25810;SDS011;13645;52.460;13.910;2022-10-31T00:25:28;1.13;;;1.02;;
25810;SDS011;13645;52.460;13.910;2022-10-31T00:27:59;1.65;;;0.90;;
25810;SDS011;13645;52.460;13.910;2022-10-31T00:30:26;3.22;;;1.42;;
25810;SDS011;13645;52.460;13.910;2022-10-31T00:32:53;1.95;;;1.30;;
25810;SDS011;13645;52.460;13.910;2022-10-31T00:35:19;2.35;;;1.40;;
25810;SDS011;13645;52.460;13.910;2022-10-31T00:37:46;5.60;;;2.10;;
25810;SDS011;13645;52.460;13.910;2022-10-31T00:40:13;7.15;;;2.03;;
25810;SDS011;13645;52.460;13.910;2022-10-31T00:42:40;6.00;;;2.47;;
25810;SDS011;13645;52.460;13.910;2022-10-31T00:45:08;7.88;;;3.60;;
25810;SDS011;13645;52.460;13.910;2022-10-31T00:47:36;6.70;;;3.20;;
25810;SDS011;13645;52.460;13.910;2022-10-31T00:50:04;6.63;;;3.45;;
25810;SDS011;13645;52.460;13.910;2022-10-31T00:52:31;4.55;;;2.70;;
25810;SDS011;13645;52.460;13.910;2022-10-31T00:54:58;6.63;;;3.00;;
25810;SDS011;13645;52.460;13.910;2022-10-31T00:57:24;6.05;;;3.13;;
25810;SDS011;13645;52.460;13.910;2022-10-31T00:59:51;4.82;;;3.30;;
25810;SDS011;13645;52.460;13.910;2022-10-31T01:02:18;9.68;;;3.67;;
25810;SDS011;13645;52.460;13.910;2022-10-31T01:04:45;12.38;;;4.38;;
25810;SDS011;13645;52.460;13.910;2022-10-31T01:07:12;7.00;;;4.03;;
25810;SDS011;13645;52.460;13.910;2022-10-31T01:09:40;9.88;;;4.47;;
25810;SDS011;13645;52.460;13.910;2022-10-31T01:12:06;9.15;;;3.15;;
25810;SDS011;13645;52.460;13.910;2022-10-31T01:14:34;6.00;;;3.33;;
25810;SDS011;13645;52.460;13.910;2022-10-31T01:17:00;6.53;;;3.10;;
25810;SDS011;13645;52.460;13.910;2022-10-31T01:19:27;4.93;;;3.00;;
25810;SDS011;13645;52.460;13.910;2022-10-31T01:21:54;6.15;;;3.15;;
25810;SDS011;13645;52.460;13.910;2022-10-31T01:24:21;9.88;;;3.30;;
25810;SDS011;13645;52.460;13.910;2022-10-31T01:26:48;8.20;;;3.65;;
25810;SDS011;13645;52.460;13.910;2022-10-31T01:29:15;11.38;;;4.20;;
25810;SDS011;13645;52.460;13.910;2022-10-31T01:31:41;14.32;;;3.85;;
25810;SDS011;13645;52.460;13.910;2022-10-31T01:34:09;6.00;;;3.53;;
25810;SDS011;13645;52.460;13.910;2022-10-31T01:36:39;7.43;;;3.58;;
25810;SDS011;13645;52.460;13.910;2022-10-31T01:39:11;9.40;;;4.05;;
25810;SDS011;13645;52.460;13.910;2022-10-31T01:41:40;8.93;;;3.83;;
25810;SDS011;13645;52.460;13.910;2022-10-31T01:46:54;6.28;;;4.05;;
25810;SDS011;13645;52.460;13.910;2022-10-31T01:49:42;6.22;;;3.78;;
25810;SDS011;13645;52.460;13.910;2022-10-31T01:52:11;6.53;;;3.70;;
25810;SDS011;13645;52.460;13.910;2022-10-31T01:54:46;6.13;;;3.20;;
25810;SDS011;13645;52.460;13.910;2022-10-31T01:57:19;8.13;;;3.83;;
25810;SDS011;13645;52.460;13.910;2022-10-31T01:59:48;8.93;;;4.00;;
25810;SDS011;13645;52.460;13.910;2022-10-31T02:02:18;10.35;;;3.50;;
25810;SDS011;13645;52.460;13.910;2022-10-31T02:04:45;5.97;;;3.90;;
25810;SDS011;13645;52.460;13.910;2022-10-31T02:07:14;9.90;;;3.85;;
25810;SDS011;13645;52.460;13.910;2022-10-31T02:09:44;13.10;;;4.95;;
25810;SDS011;13645;52.460;13.910;2022-10-31T02:12:12;16.85;;;5.40;;
25810;SDS011;13645;52.460;13.910;2022-10-31T02:14:39;9.82;;;4.90;;
25810;SDS011;13645;52.460;13.910;2022-10-31T02:17:06;14.82;;;6.20;;
25810;SDS011;13645;52.460;13.910;2022-10-31T02:22:16;14.35;;;6.18;;
25810;SDS011;13645;52.460;13.910;2022-10-31T02:27:37;11.43;;;5.80;;
25810;SDS011;13645;52.460;13.910;2022-10-31T02:30:20;13.15;;;6.28;;
25810;SDS011;13645;52.460;13.910;2022-10-31T02:35:39;18.83;;;7.35;;
25810;SDS011;13645;52.460;13.910;2022-10-31T02:38:20;15.68;;;7.30;;
25810;SDS011;13645;52.460;13.910;2022-10-31T02:41:01;21.48;;;7.72;;
25810;SDS011;13645;52.460;13.910;2022-10-31T02:46:53;14.93;;;6.88;;
25810;SDS011;13645;52.460;13.910;2022-10-31T02:49:33;16.45;;;6.97;;
25810;SDS011;13645;52.460;13.910;2022-10-31T02:52:17;20.10;;;8.73;;
25810;SDS011;13645;52.460;13.910;2022-10-31T02:54:47;25.48;;;8.45;;
25810;SDS011;13645;52.460;13.910;2022-10-31T02:57:15;14.82;;;8.30;;
25810;SDS011;13645;52.460;13.910;2022-10-31T02:59:49;17.85;;;8.18;;
25810;SDS011;13645;52.460;13.910;2022-10-31T03:02:23;14.52;;;7.50;;
25810;SDS011;13645;52.460;13.910;2022-10-31T03:08:39;22.25;;;7.93;;
25810;SDS011;13645;52.460;13.910;2022-10-31T03:11:09;19.73;;;8.10;;
25810;SDS011;13645;52.460;13.910;2022-10-31T03:13:56;15.93;;;7.70;;
25810;SDS011;13645;52.460;13.910;2022-10-31T03:16:46;21.73;;;8.32;;
25810;SDS011;13645;52.460;13.910;2022-10-31T03:19:58;23.35;;;8.82;;
25810;SDS011;13645;52.460;13.910;2022-10-31T03:22:11;23.75;;;8.90;;
25810;SDS011;13645;52.460;13.910;2022-10-31T03:24:43;20.05;;;6.65;;
25810;SDS011;13645;52.460;13.910;2022-10-31T03:27:11;13.75;;;6.30;;
25810;SDS011;13645;52.460;13.910;2022-10-31T03:29:40;19.23;;;7.63;;
25810;SDS011;13645;52.460;13.910;2022-10-31T03:32:12;23.83;;;9.15;;
25810;SDS011;13645;52.460;13.910;2022-10-31T03:34:42;22.40;;;9.55;;
25810;SDS011;13645;52.460;13.910;2022-10-31T03:37:13;31.90;;;10.32;;
25810;SDS011;13645;52.460;13.910;2022-10-31T03:39:43;25.23;;;9.93;;
25810;SDS011;13645;52.460;13.910;2022-10-31T03:42:14;22.90;;;10.15;;
25810;SDS011;13645;52.460;13.910;2022-10-31T03:44:48;18.98;;;9.35;;
25810;SDS011;13645;52.460;13.910;2022-10-31T03:47:19;19.38;;;9.77;;
25810;SDS011;13645;52.460;13.910;2022-10-31T03:49:46;19.80;;;9.65;;
25810;SDS011;13645;52.460;13.910;2022-10-31T03:54:59;16.42;;;7.90;;
25810;SDS011;13645;52.460;13.910;2022-10-31T03:57:33;21.80;;;8.63;;
25810;SDS011;13645;52.460;13.910;2022-10-31T04:00:25;18.43;;;8.53;;
25810;SDS011;13645;52.460;13.910;2022-10-31T04:05:38;23.38;;;8.13;;
25810;SDS011;13645;52.460;13.910;2022-10-31T04:08:09;20.95;;;7.18;;
25810;SDS011;13645;52.460;13.910;2022-10-31T04:10:39;19.45;;;8.38;;
25810;SDS011;13645;52.460;13.910;2022-10-31T04:13:13;18.88;;;7.07;;
25810;SDS011;13645;52.460;13.910;2022-10-31T04:15:44;16.63;;;7.50;;
25810;SDS011;13645;52.460;13.910;2022-10-31T04:18:12;19.08;;;7.25;;
25810;SDS011;13645;52.460;13.910;2022-10-31T04:20:39;17.55;;;8.30;;
25810;SDS011;13645;52.460;13.910;2022-10-31T04:25:43;20.33;;;8.82;;
25810;SDS011;13645;52.460;13.910;2022-10-31T04:28:09;23.85;;;9.85;;
25810;SDS011;13645;52.460;13.910;2022-10-31T04:30:36;21.88;;;9.20;;
25810;SDS011;13645;52.460;13.910;2022-10-31T04:33:03;27.13;;;9.40;;
25810;SDS011;13645;52.460;13.910;2022-10-31T04:35:29;30.40;;;8.52;;
25810;SDS011;13645;52.460;13.910;2022-10-31T04:37:56;19.85;;;8.30;;
25810;SDS011;13645;52.460;13.910;2022-10-31T04:40:22;16.05;;;8.15;;
25810;SDS011;13645;52.460;13.910;2022-10-31T04:42:49;16.70;;;8.25;;
25810;SDS011;13645;52.460;13.910;2022-10-31T04:45:16;18.88;;;7.97;;
25810;SDS011;13645;52.460;13.910;2022-10-31T04:47:46;18.00;;;8.15;;
25810;SDS011;13645;52.460;13.910;2022-10-31T04:50:13;21.02;;;7.78;;
25810;SDS011;13645;52.460;13.910;2022-10-31T04:52:40;19.88;;;8.10;;
25810;SDS011;13645;52.460;13.910;2022-10-31T04:55:08;24.98;;;10.15;;
25810;SDS011;13645;52.460;13.910;2022-10-31T04:57:48;23.40;;;9.27;;
25810;SDS011;13645;52.460;13.910;2022-10-31T05:00:17;18.23;;;8.32;;
25810;SDS011;13645;52.460;13.910;2022-10-31T05:02:45;28.08;;;9.00;;
25810;SDS011;13645;52.460;13.910;2022-10-31T05:05:21;19.05;;;8.60;;
25810;SDS011;13645;52.460;13.910;2022-10-31T05:07:52;17.73;;;7.65;;
25810;SDS011;13645;52.460;13.910;2022-10-31T05:10:20;25.50;;;8.52;;
25810;SDS011;13645;52.460;13.910;2022-10-31T05:12:49;18.52;;;7.00;;
25810;SDS011;13645;52.460;13.910;2022-10-31T05:15:24;15.70;;;7.00;;
25810;SDS011;13645;52.460;13.910;2022-10-31T05:17:52;23.13;;;7.75;;
25810;SDS011;13645;52.460;13.910;2022-10-31T05:20:20;15.10;;;7.50;;
25810;SDS011;13645;52.460;13.910;2022-10-31T05:22:48;18.25;;;7.75;;
25810;SDS011;13645;52.460;13.910;2022-10-31T05:25:17;15.60;;;7.30;;
25810;SDS011;13645;52.460;13.910;2022-10-31T05:27:46;17.13;;;6.72;;
25810;SDS011;13645;52.460;13.910;2022-10-31T05:30:16;19.15;;;7.55;;
25810;SDS011;13645;52.460;13.910;2022-10-31T05:32:47;13.30;;;7.15;;
25810;SDS011;13645;52.460;13.910;2022-10-31T05:35:19;23.48;;;8.45;;
25810;SDS011;13645;52.460;13.910;2022-10-31T05:37:51;18.48;;;8.07;;
25810;SDS011;13645;52.460;13.910;2022-10-31T05:40:18;23.27;;;8.43;;
25810;SDS011;13645;52.460;13.910;2022-10-31T05:42:46;18.75;;;7.50;;
25810;SDS011;13645;52.460;13.910;2022-10-31T05:45:14;25.67;;;8.02;;
25810;SDS011;13645;52.460;13.910;2022-10-31T05:47:42;20.58;;;7.22;;
25810;SDS011;13645;52.460;13.910;2022-10-31T05:50:15;18.15;;;8.50;;
25810;SDS011;13645;52.460;13.910;2022-10-31T05:52:42;18.50;;;7.55;;
25810;SDS011;13645;52.460;13.910;2022-10-31T05:55:09;16.98;;;8.18;;
25810;SDS011;13645;52.460;13.910;2022-10-31T05:57:35;16.13;;;7.72;;
25810;SDS011;13645;52.460;13.910;2022-10-31T06:00:03;18.80;;;7.82;;
25810;SDS011;13645;52.460;13.910;2022-10-31T06:02:31;15.65;;;7.63;;
25810;SDS011;13645;52.460;13.910;2022-10-31T06:05:00;17.63;;;8.68;;
25810;SDS011;13645;52.460;13.910;2022-10-31T06:07:31;19.75;;;8.13;;
25810;SDS011;13645;52.460;13.910;2022-10-31T06:09:59;18.92;;;9.25;;
25810;SDS011;13645;52.460;13.910;2022-10-31T06:12:27;21.23;;;9.02;;
25810;SDS011;13645;52.460;13.910;2022-10-31T06:14:56;18.25;;;8.18;;
25810;SDS011;13645;52.460;13.910;2022-10-31T06:17:22;18.25;;;8.55;;
25810;SDS011;13645;52.460;13.910;2022-10-31T06:19:49;24.20;;;9.15;;
25810;SDS011;13645;52.460;13.910;2022-10-31T06:22:20;13.65;;;6.88;;
25810;SDS011;13645;52.460;13.910;2022-10-31T06:24:47;20.60;;;7.93;;
25810;SDS011;13645;52.460;13.910;2022-10-31T06:27:14;20.23;;;8.38;;
25810;SDS011;13645;52.460;13.910;2022-10-31T06:29:40;20.70;;;7.47;;
25810;SDS011;13645;52.460;13.910;2022-10-31T06:32:09;16.90;;;7.55;;
25810;SDS011;13645;52.460;13.910;2022-10-31T06:34:37;18.17;;;7.80;;
25810;SDS011;13645;52.460;13.910;2022-10-31T06:37:08;20.20;;;7.50;;
25810;SDS011;13645;52.460;13.910;2022-10-31T06:39:35;13.60;;;7.50;;
25810;SDS011;13645;52.460;13.910;2022-10-31T06:42:03;15.95;;;7.20;;
25810;SDS011;13645;52.460;13.910;2022-10-31T06:44:30;18.65;;;8.23;;
25810;SDS011;13645;52.460;13.910;2022-10-31T06:46:57;16.75;;;8.35;;
25810;SDS011;13645;52.460;13.910;2022-10-31T06:49:24;16.80;;;8.40;;
25810;SDS011;13645;52.460;13.910;2022-10-31T06:51:50;17.48;;;9.13;;
25810;SDS011;13645;52.460;13.910;2022-10-31T06:54:17;17.95;;;9.35;;
25810;SDS011;13645;52.460;13.910;2022-10-31T06:56:47;15.25;;;7.30;;
25810;SDS011;13645;52.460;13.910;2022-10-31T06:59:14;15.20;;;8.25;;
25810;SDS011;13645;52.460;13.910;2022-10-31T07:01:41;15.30;;;6.93;;
25810;SDS011;13645;52.460;13.910;2022-10-31T07:04:09;18.63;;;7.88;;
25810;SDS011;13645;52.460;13.910;2022-10-31T07:06:36;25.13;;;8.00;;
25810;SDS011;13645;52.460;13.910;2022-10-31T07:09:03;18.05;;;7.72;;
25810;SDS011;13645;52.460;13.910;2022-10-31T07:11:30;18.83;;;9.30;;
25810;SDS011;13645;52.460;13.910;2022-10-31T07:13:57;27.65;;;10.30;;
25810;SDS011;13645;52.460;13.910;2022-10-31T07:16:23;19.10;;;9.05;;
25810;SDS011;13645;52.460;13.910;2022-10-31T07:18:50;19.60;;;9.13;;
25810;SDS011;13645;52.460;13.910;2022-10-31T07:21:17;19.05;;;8.48;;
25810;SDS011;13645;52.460;13.910;2022-10-31T07:23:44;22.27;;;9.80;;
25810;SDS011;13645;52.460;13.910;2022-10-31T07:26:13;15.57;;;7.88;;
25810;SDS011;13645;52.460;13.910;2022-10-31T07:28:40;23.45;;;8.90;;
25810;SDS011;13645;52.460;13.910;2022-10-31T07:31:07;23.88;;;9.27;;
25810;SDS011;13645;52.460;13.910;2022-10-31T07:33:33;14.70;;;7.40;;
25810;SDS011;13645;52.460;13.910;2022-10-31T07:36:00;12.65;;;8.50;;
25810;SDS011;13645;52.460;13.910;2022-10-31T07:38:26;19.85;;;9.02;;
25810;SDS011;13645;52.460;13.910;2022-10-31T07:40:53;19.58;;;9.25;;
25810;SDS011;13645;52.460;13.910;2022-10-31T07:43:20;15.05;;;8.45;;
25810;SDS011;13645;52.460;13.910;2022-10-31T07:45:51;14.32;;;8.15;;
25810;SDS011;13645;52.460;13.910;2022-10-31T07:48:18;18.88;;;8.80;;
25810;SDS011;13645;52.460;13.910;2022-10-31T07:50:45;19.25;;;9.48;;
25810;SDS011;13645;52.460;13.910;2022-10-31T07:53:13;24.05;;;9.05;;
25810;SDS011;13645;52.460;13.910;2022-10-31T07:55:40;14.88;;;8.82;;
25810;SDS011;13645;52.460;13.910;2022-10-31T07:58:12;15.02;;;8.43;;
25810;SDS011;13645;52.460;13.910;2022-10-31T08:00:40;16.08;;;8.95;;
25810;SDS011;13645;52.460;13.910;2022-10-31T08:03:10;20.20;;;10.10;;
25810;SDS011;13645;52.460;13.910;2022-10-31T08:05:39;22.00;;;10.60;;
25810;SDS011;13645;52.460;13.910;2022-10-31T08:08:07;16.40;;;9.23;;
25810;SDS011;13645;52.460;13.910;2022-10-31T08:10:34;19.27;;;10.38;;
25810;SDS011;13645;52.460;13.910;2022-10-31T08:13:05;32.88;;;13.10;;
25810;SDS011;13645;52.460;13.910;2022-10-31T08:15:35;19.10;;;11.70;;
25810;SDS011;13645;52.460;13.910;2022-10-31T08:18:04;21.40;;;12.95;;
25810;SDS011;13645;52.460;13.910;2022-10-31T08:20:32;27.73;;;15.50;;
25810;SDS011;13645;52.460;13.910;2022-10-31T08:23:02;24.65;;;16.77;;
25810;SDS011;13645;52.460;13.910;2022-10-31T08:25:32;25.85;;;16.52;;
25810;SDS011;13645;52.460;13.910;2022-10-31T08:28:04;29.33;;;16.45;;
25810;SDS011;13645;52.460;13.910;2022-10-31T08:30:32;26.27;;;16.05;;
25810;SDS011;13645;52.460;13.910;2022-10-31T08:35:53;32.42;;;16.25;;
25810;SDS011;13645;52.460;13.910;2022-10-31T08:38:20;33.22;;;15.88;;
25810;SDS011;13645;52.460;13.910;2022-10-31T08:40:47;28.52;;;15.80;;
25810;SDS011;13645;52.460;13.910;2022-10-31T08:43:15;32.72;;;16.70;;
25810;SDS011;13645;52.460;13.910;2022-10-31T08:45:43;35.25;;;17.45;;
25810;SDS011;13645;52.460;13.910;2022-10-31T08:48:14;36.00;;;17.33;;
25810;SDS011;13645;52.460;13.910;2022-10-31T08:50:42;37.58;;;18.13;;
25810;SDS011;13645;52.460;13.910;2022-10-31T08:53:14;43.03;;;17.83;;
25810;SDS011;13645;52.460;13.910;2022-10-31T08:55:43;35.05;;;18.30;;
25810;SDS011;13645;52.460;13.910;2022-10-31T08:58:12;32.90;;;18.00;;
25810;SDS011;13645;52.460;13.910;2022-10-31T09:00:40;34.42;;;19.50;;
25810;SDS011;13645;52.460;13.910;2022-10-31T09:03:14;40.00;;;19.23;;
25810;SDS011;13645;52.460;13.910;2022-10-31T09:05:42;39.55;;;18.30;;
25810;SDS011;13645;52.460;13.910;2022-10-31T09:08:09;36.53;;;19.42;;
25810;SDS011;13645;52.460;13.910;2022-10-31T09:10:42;30.90;;;17.60;;
25810;SDS011;13645;52.460;13.910;2022-10-31T09:13:12;31.45;;;18.58;;
25810;SDS011;13645;52.460;13.910;2022-10-31T09:15:42;34.17;;;18.40;;
25810;SDS011;13645;52.460;13.910;2022-10-31T09:18:10;37.25;;;18.77;;
25810;SDS011;13645;52.460;13.910;2022-10-31T09:20:38;30.33;;;17.70;;
25810;SDS011;13645;52.460;13.910;2022-10-31T09:23:13;34.72;;;17.80;;
25810;SDS011;13645;52.460;13.910;2022-10-31T09:25:41;38.13;;;18.15;;
25810;SDS011;13645;52.460;13.910;2022-10-31T09:28:17;37.10;;;17.50;;
25810;SDS011;13645;52.460;13.910;2022-10-31T09:30:48;39.17;;;17.27;;
25810;SDS011;13645;52.460;13.910;2022-10-31T09:33:16;37.63;;;16.67;;
25810;SDS011;13645;52.460;13.910;2022-10-31T09:35:43;36.08;;;17.08;;
25810;SDS011;13645;52.460;13.910;2022-10-31T09:38:11;41.70;;;18.90;;
25810;SDS011;13645;52.460;13.910;2022-10-31T09:40:56;38.13;;;17.48;;
25810;SDS011;13645;52.460;13.910;2022-10-31T09:46:54;41.30;;;19.35;;
25810;SDS011;13645;52.460;13.910;2022-10-31T09:55:02;41.05;;;18.23;;
25810;SDS011;13645;52.460;13.910;2022-10-31T09:57:35;34.38;;;17.90;;
25810;SDS011;13645;52.460;13.910;2022-10-31T10:00:06;37.88;;;17.77;;
25810;SDS011;13645;52.460;13.910;2022-10-31T10:02:43;43.50;;;18.55;;
25810;SDS011;13645;52.460;13.910;2022-10-31T10:05:28;33.50;;;18.52;;
25810;SDS011;13645;52.460;13.910;2022-10-31T10:08:10;34.85;;;18.30;;
25810;SDS011;13645;52.460;13.910;2022-10-31T10:10:51;34.40;;;19.48;;
25810;SDS011;13645;52.460;13.910;2022-10-31T10:13:31;40.38;;;18.45;;
25810;SDS011;13645;52.460;13.910;2022-10-31T10:16:42;31.60;;;18.27;;
25810;SDS011;13645;52.460;13.910;2022-10-31T10:19:33;41.97;;;18.80;;
25810;SDS011;13645;52.460;13.910;2022-10-31T10:23:08;37.33;;;19.77;;
25810;SDS011;13645;52.460;13.910;2022-10-31T10:25:20;36.97;;;18.33;;
25810;SDS011;13645;52.460;13.910;2022-10-31T10:30:21;33.80;;;16.63;;
25810;SDS011;13645;52.460;13.910;2022-10-31T10:32:50;38.35;;;18.55;;
25810;SDS011;13645;52.460;13.910;2022-10-31T10:35:28;34.85;;;18.70;;
25810;SDS011;13645;52.460;13.910;2022-10-31T10:38:22;36.33;;;17.30;;
25810;SDS011;13645;52.460;13.910;2022-10-31T10:41:06;39.38;;;15.73;;
25810;SDS011;13645;52.460;13.910;2022-10-31T10:43:41;34.95;;;16.65;;
25810;SDS011;13645;52.460;13.910;2022-10-31T10:49:02;36.03;;;18.33;;
25810;SDS011;13645;52.460;13.910;2022-10-31T10:51:58;43.17;;;16.63;;
25810;SDS011;13645;52.460;13.910;2022-10-31T10:55:20;35.05;;;15.50;;
25810;SDS011;13645;52.460;13.910;2022-10-31T10:58:03;31.48;;;16.00;;
25810;SDS011;13645;52.460;13.910;2022-10-31T11:00:36;50.10;;;23.20;;
25810;SDS011;13645;52.460;13.910;2022-10-31T11:03:06;38.13;;;18.65;;
25810;SDS011;13645;52.460;13.910;2022-10-31T11:05:40;74.63;;;37.03;;
25810;SDS011;13645;52.460;13.910;2022-10-31T11:08:25;47.35;;;21.45;;
25810;SDS011;13645;52.460;13.910;2022-10-31T11:13:58;33.40;;;16.20;;
25810;SDS011;13645;52.460;13.910;2022-10-31T11:19:09;35.30;;;15.00;;
25810;SDS011;13645;52.460;13.910;2022-10-31T11:21:42;33.45;;;14.02;;
25810;SDS011;13645;52.460;13.910;2022-10-31T11:24:20;27.67;;;13.95;;
25810;SDS011;13645;52.460;13.910;2022-10-31T11:27:02;36.30;;;14.00;;
25810;SDS011;13645;52.460;13.910;2022-10-31T11:29:39;27.88;;;13.27;;
25810;SDS011;13645;52.460;13.910;2022-10-31T11:32:08;20.23;;;12.02;;
25810;SDS011;13645;52.460;13.910;2022-10-31T11:34:53;27.23;;;13.02;;
25810;SDS011;13645;52.460;13.910;2022-10-31T11:37:27;34.33;;;12.90;;
25810;SDS011;13645;52.460;13.910;2022-10-31T11:39:57;27.83;;;13.40;;
25810;SDS011;13645;52.460;13.910;2022-10-31T11:42:26;25.98;;;13.32;;
25810;SDS011;13645;52.460;13.910;2022-10-31T11:44:56;25.23;;;13.20;;
25810;SDS011;13645;52.460;13.910;2022-10-31T11:47:25;27.48;;;13.48;;
25810;SDS011;13645;52.460;13.910;2022-10-31T11:49:54;24.30;;;13.57;;
25810;SDS011;13645;52.460;13.910;2022-10-31T11:52:27;25.75;;;12.38;;
25810;SDS011;13645;52.460;13.910;2022-10-31T12:00:47;27.15;;;11.95;;
25810;SDS011;13645;52.460;13.910;2022-10-31T12:05:54;24.80;;;12.75;;
25810;SDS011;13645;52.460;13.910;2022-10-31T12:08:32;27.77;;;12.27;;
25810;SDS011;13645;52.460;13.910;2022-10-31T12:17:18;32.53;;;12.00;;
25810;SDS011;13645;52.460;13.910;2022-10-31T12:39:25;21.52;;;10.02;;
25810;SDS011;13645;52.460;13.910;2022-10-31T12:45:27;24.75;;;10.68;;
25810;SDS011;13645;52.460;13.910;2022-10-31T12:47:59;21.80;;;10.20;;
25810;SDS011;13645;52.460;13.910;2022-10-31T12:58:51;18.23;;;9.07;;
25810;SDS011;13645;52.460;13.910;2022-10-31T13:04:02;28.77;;;10.30;;
25810;SDS011;13645;52.460;13.910;2022-10-31T13:06:43;23.52;;;9.65;;
25810;SDS011;13645;52.460;13.910;2022-10-31T13:09:20;26.08;;;9.55;;
25810;SDS011;13645;52.460;13.910;2022-10-31T13:11:55;23.33;;;9.40;;
25810;SDS011;13645;52.460;13.910;2022-10-31T13:14:33;26.15;;;9.70;;
25810;SDS011;13645;52.460;13.910;2022-10-31T13:17:05;26.45;;;10.10;;
25810;SDS011;13645;52.460;13.910;2022-10-31T13:19:37;22.40;;;9.88;;
25810;SDS011;13645;52.460;13.910;2022-10-31T13:22:16;27.20;;;10.75;;
25810;SDS011;13645;52.460;13.910;2022-10-31T13:24:53;21.77;;;9.65;;
25810;SDS011;13645;52.460;13.910;2022-10-31T13:27:36;23.63;;;9.15;;
25810;SDS011;13645;52.460;13.910;2022-10-31T13:32:56;31.08;;;12.23;;
25810;SDS011;13645;52.460;13.910;2022-10-31T13:35:36;26.45;;;11.27;;
25810;SDS011;13645;52.460;13.910;2022-10-31T13:40:58;23.58;;;11.32;;
25810;SDS011;13645;52.460;13.910;2022-10-31T13:43:59;25.73;;;11.07;;
25810;SDS011;13645;52.460;13.910;2022-10-31T13:48:59;25.92;;;11.82;;
25810;SDS011;13645;52.460;13.910;2022-10-31T13:51:30;25.02;;;11.18;;
25810;SDS011;13645;52.460;13.910;2022-10-31T13:54:06;28.15;;;11.20;;
25810;SDS011;13645;52.460;13.910;2022-10-31T13:57:00;35.90;;;13.23;;
25810;SDS011;13645;52.460;13.910;2022-10-31T13:59:27;35.78;;;13.63;;
25810;SDS011;13645;52.460;13.910;2022-10-31T14:01:58;33.72;;;13.32;;
25810;SDS011;13645;52.460;13.910;2022-10-31T14:07:08;28.73;;;12.75;;
25810;SDS011;13645;52.460;13.910;2022-10-31T14:10:02;25.08;;;12.15;;
25810;SDS011;13645;52.460;13.910;2022-10-31T14:12:45;31.38;;;12.15;;
25810;SDS011;13645;52.460;13.910;2022-10-31T14:18:18;28.02;;;13.30;;
25810;SDS011;13645;52.460;13.910;2022-10-31T14:20:53;31.40;;;12.88;;
25810;SDS011;13645;52.460;13.910;2022-10-31T14:23:39;24.42;;;12.13;;
25810;SDS011;13645;52.460;13.910;2022-10-31T14:28:56;30.85;;;11.10;;
25810;SDS011;13645;52.460;13.910;2022-10-31T14:34:18;28.88;;;12.13;;
25810;SDS011;13645;52.460;13.910;2022-10-31T14:39:44;29.85;;;11.98;;
25810;SDS011;13645;52.460;13.910;2022-10-31T14:42:18;23.75;;;11.05;;
25810;SDS011;13645;52.460;13.910;2022-10-31T14:50:23;15.65;;;8.88;;
25810;SDS011;13645;52.460;13.910;2022-10-31T14:53:00;24.70;;;10.25;;
25810;SDS011;13645;52.460;13.910;2022-10-31T14:55:30;20.92;;;10.02;;
25810;SDS011;13645;52.460;13.910;2022-10-31T14:58:04;20.80;;;10.13;;
25810;SDS011;13645;52.460;13.910;2022-10-31T15:00:33;24.60;;;12.38;;
25810;SDS011;13645;52.460;13.910;2022-10-31T15:03:12;23.75;;;10.50;;
25810;SDS011;13645;52.460;13.910;2022-10-31T15:05:45;20.67;;;11.13;;
25810;SDS011;13645;52.460;13.910;2022-10-31T15:11:26;25.35;;;12.55;;
25810;SDS011;13645;52.460;13.910;2022-10-31T15:13:57;30.98;;;11.23;;
25810;SDS011;13645;52.460;13.910;2022-10-31T15:16:30;26.48;;;10.98;;
25810;SDS011;13645;52.460;13.910;2022-10-31T15:19:04;24.45;;;10.02;;
25810;SDS011;13645;52.460;13.910;2022-10-31T15:21:33;21.75;;;10.23;;
25810;SDS011;13645;52.460;13.910;2022-10-31T15:24:02;24.08;;;10.68;;
25810;SDS011;13645;52.460;13.910;2022-10-31T15:26:31;23.10;;;10.32;;
25810;SDS011;13645;52.460;13.910;2022-10-31T15:29:04;25.10;;;9.70;;
25810;SDS011;13645;52.460;13.910;2022-10-31T15:31:32;17.25;;;9.30;;
25810;SDS011;13645;52.460;13.910;2022-10-31T15:34:06;22.48;;;9.93;;
25810;SDS011;13645;52.460;13.910;2022-10-31T15:36:42;19.85;;;9.32;;
25810;SDS011;13645;52.460;13.910;2022-10-31T15:39:10;29.30;;;10.50;;
25810;SDS011;13645;52.460;13.910;2022-10-31T15:41:49;23.58;;;12.55;;
25810;SDS011;13645;52.460;13.910;2022-10-31T15:47:04;28.80;;;16.27;;
25810;SDS011;13645;52.460;13.910;2022-10-31T15:49:49;34.75;;;16.33;;
25810;SDS011;13645;52.460;13.910;2022-10-31T15:52:25;35.38;;;17.15;;
25810;SDS011;13645;52.460;13.910;2022-10-31T15:55:00;34.60;;;15.65;;
25810;SDS011;13645;52.460;13.910;2022-10-31T15:57:30;23.52;;;14.38;;
25810;SDS011;13645;52.460;13.910;2022-10-31T15:59:58;29.40;;;13.60;;
25810;SDS011;13645;52.460;13.910;2022-10-31T16:02:25;29.25;;;13.27;;
25810;SDS011;13645;52.460;13.910;2022-10-31T16:05:00;30.65;;;13.98;;
25810;SDS011;13645;52.460;13.910;2022-10-31T16:07:28;46.60;;;18.40;;
25810;SDS011;13645;52.460;13.910;2022-10-31T16:09:56;37.17;;;19.00;;
25810;SDS011;13645;52.460;13.910;2022-10-31T16:12:36;71.40;;;22.38;;
25810;SDS011;13645;52.460;13.910;2022-10-31T16:15:13;53.28;;;19.85;;
25810;SDS011;13645;52.460;13.910;2022-10-31T16:17:43;45.13;;;19.42;;
25810;SDS011;13645;52.460;13.910;2022-10-31T16:20:23;33.28;;;15.82;;
25810;SDS011;13645;52.460;13.910;2022-10-31T16:22:53;28.70;;;14.93;;
25810;SDS011;13645;52.460;13.910;2022-10-31T16:25:25;27.60;;;14.05;;
25810;SDS011;13645;52.460;13.910;2022-10-31T16:27:58;29.60;;;14.32;;
25810;SDS011;13645;52.460;13.910;2022-10-31T16:30:30;36.88;;;13.93;;
25810;SDS011;13645;52.460;13.910;2022-10-31T16:39:02;33.63;;;14.50;;
25810;SDS011;13645;52.460;13.910;2022-10-31T16:41:29;23.88;;;14.27;;
25810;SDS011;13645;52.460;13.910;2022-10-31T16:43:55;33.88;;;14.65;;
25810;SDS011;13645;52.460;13.910;2022-10-31T16:46:23;32.42;;;13.73;;
25810;SDS011;13645;52.460;13.910;2022-10-31T16:48:51;34.95;;;14.20;;
25810;SDS011;13645;52.460;13.910;2022-10-31T16:51:19;27.00;;;13.88;;
25810;SDS011;13645;52.460;13.910;2022-10-31T16:53:46;30.95;;;13.63;;
25810;SDS011;13645;52.460;13.910;2022-10-31T16:59:09;23.08;;;12.73;;
25810;SDS011;13645;52.460;13.910;2022-10-31T17:01:47;16.98;;;9.85;;
25810;SDS011;13645;52.460;13.910;2022-10-31T17:06:42;18.63;;;9.00;;